createdAt,value
2022-11-10T00:02:26.495Z,9.13
2022-11-10T00:04:54.225Z,9.15
2022-11-10T00:07:26.523Z,9.17
2022-11-10T00:09:55.368Z,9.19
2022-11-10T00:12:23.315Z,9.21
2022-11-10T00:15:09.870Z,9.24
2022-11-10T00:17:38.748Z,9.28
2022-11-10T00:20:07.176Z,9.31
2022-11-10T00:22:36.384Z,9.36
2022-11-10T00:25:05.507Z,9.39
2022-11-10T00:27:33.937Z,9.43
2022-11-10T00:30:02.061Z,9.46
2022-11-10T00:32:30.053Z,9.49
2022-11-10T00:34:57.930Z,9.52
2022-11-10T00:37:25.640Z,9.55
2022-11-10T00:39:53.374Z,9.57
2022-11-10T00:42:21.771Z,9.59
2022-11-10T00:44:49.510Z,9.61
2022-11-10T00:47:17.270Z,9.63
2022-11-10T00:49:45.040Z,9.64
2022-11-10T00:52:12.777Z,9.65
2022-11-10T00:54:41.764Z,9.66
2022-11-10T00:57:09.678Z,9.68
2022-11-10T00:59:37.396Z,9.69
2022-11-10T01:02:05.139Z,9.69
2022-11-10T01:04:33.413Z,9.70
2022-11-10T01:07:01.200Z,9.70
2022-11-10T01:09:28.913Z,9.71
2022-11-10T01:11:56.989Z,9.70
2022-11-10T01:14:24.699Z,9.69
2022-11-10T01:16:52.492Z,9.67
2022-11-10T01:19:20.422Z,9.66
2022-11-10T01:21:51.480Z,9.63
2022-11-10T01:24:21.924Z,9.61
2022-11-10T01:26:49.726Z,9.60
2022-11-10T01:29:17.619Z,9.58
2022-11-10T01:31:45.425Z,9.57
2022-11-10T01:34:13.264Z,9.57
2022-11-10T01:36:41.115Z,9.56
2022-11-10T01:39:08.980Z,9.54
2022-11-10T01:41:36.710Z,9.52
2022-11-10T01:44:22.423Z,9.50
2022-11-10T01:46:50.242Z,9.48
2022-11-10T01:49:23.041Z,9.46
2022-11-10T01:52:07.942Z,9.44
2022-11-10T01:54:43.461Z,9.43
2022-11-10T01:57:14.028Z,9.41
2022-11-10T01:59:49.564Z,9.40
2022-11-10T02:02:35.451Z,9.38
2022-11-10T02:05:04.953Z,9.37
2022-11-10T02:07:33.390Z,9.36
2022-11-10T02:10:06.101Z,9.34
2022-11-10T02:12:39.688Z,9.30
2022-11-10T02:15:09.348Z,9.27
2022-11-10T02:17:37.412Z,9.23
2022-11-10T02:20:12.097Z,9.20
2022-11-10T02:22:40.625Z,9.17
2022-11-10T02:25:09.285Z,9.14
2022-11-10T02:27:37.159Z,9.12
2022-11-10T02:30:05.459Z,9.11
2022-11-10T02:32:33.178Z,9.09
2022-11-10T02:35:00.938Z,9.08
2022-11-10T02:37:29.141Z,9.06
2022-11-10T02:39:56.885Z,9.05
2022-11-10T02:42:24.725Z,9.04
2022-11-10T02:44:52.726Z,9.01
2022-11-10T02:47:20.590Z,8.99
2022-11-10T02:49:48.337Z,8.97
2022-11-10T02:52:16.220Z,8.96
2022-11-10T02:54:44.090Z,8.93
2022-11-10T02:57:12.054Z,8.91
2022-11-10T02:59:39.854Z,8.87
2022-11-10T03:02:07.788Z,8.84
2022-11-10T03:04:35.561Z,8.81
2022-11-10T03:07:03.542Z,8.78
2022-11-10T03:09:31.718Z,8.76
2022-11-10T03:11:59.660Z,8.74
2022-11-10T03:14:27.357Z,8.72
2022-11-10T03:16:55.119Z,8.70
2022-11-10T03:19:22.884Z,8.67
2022-11-10T03:21:50.672Z,8.65
2022-11-10T03:24:18.889Z,8.62
2022-11-10T03:26:46.580Z,8.61
2022-11-10T03:29:14.622Z,8.60
2022-11-10T03:31:42.343Z,8.60
2022-11-10T03:34:10.352Z,8.57
2022-11-10T03:36:38.337Z,8.53
2022-11-10T03:39:06.290Z,8.48
2022-11-10T03:41:34.831Z,8.46
2022-11-10T03:44:02.977Z,8.43
2022-11-10T03:46:30.750Z,8.39
2022-11-10T03:48:58.496Z,8.35
2022-11-10T03:51:26.304Z,8.31
2022-11-10T03:53:54.029Z,8.26
2022-11-10T03:56:21.720Z,8.21
2022-11-10T03:58:50.635Z,8.18
2022-11-10T04:01:18.977Z,8.15
2022-11-10T04:03:51.285Z,8.14
2022-11-10T04:06:39.084Z,8.12
2022-11-10T04:09:08.627Z,8.11
2022-11-10T04:11:54.837Z,8.13
2022-11-10T04:14:41.545Z,8.12
2022-11-10T04:17:09.956Z,8.10
2022-11-10T04:19:37.749Z,8.08
2022-11-10T04:22:05.493Z,8.07
2022-11-10T04:24:33.216Z,8.07
2022-11-10T04:27:00.957Z,8.06
2022-11-10T04:29:28.688Z,8.04
2022-11-10T04:31:56.385Z,8.03
2022-11-10T04:34:24.112Z,8.02
2022-11-10T04:36:52.462Z,8.00
2022-11-10T04:39:20.363Z,7.98
2022-11-10T04:41:49.041Z,7.97
2022-11-10T04:44:16.813Z,7.96
2022-11-10T04:46:46.979Z,7.93
2022-11-10T04:49:14.689Z,7.92
2022-11-10T04:51:42.654Z,7.90
2022-11-10T04:54:11.848Z,7.88
2022-11-10T04:56:40.637Z,7.86
2022-11-10T04:59:09.175Z,7.85
2022-11-10T05:01:36.921Z,7.83
2022-11-10T05:04:05.873Z,7.81
2022-11-10T05:06:33.692Z,7.79
2022-11-10T05:09:02.218Z,7.77
2022-11-10T05:11:29.956Z,7.76
2022-11-10T05:13:57.711Z,7.74
2022-11-10T05:16:25.472Z,7.72
2022-11-10T05:18:54.481Z,7.70
2022-11-10T05:21:22.241Z,7.70
2022-11-10T05:23:49.973Z,7.70
2022-11-10T05:26:18.486Z,7.70
2022-11-10T05:28:46.742Z,7.69
2022-11-10T05:31:14.525Z,7.68
2022-11-10T05:33:42.473Z,7.68
2022-11-10T05:36:10.743Z,7.67
2022-11-10T05:38:43.442Z,7.66
2022-11-10T05:41:12.250Z,7.65
2022-11-10T05:43:40.532Z,7.65
2022-11-10T05:46:08.587Z,7.66
2022-11-10T05:48:36.292Z,7.66
2022-11-10T05:51:04.132Z,7.66
2022-11-10T05:53:32.029Z,7.65
2022-11-10T05:55:59.771Z,7.64
2022-11-10T05:58:27.502Z,7.66
2022-11-10T06:00:55.277Z,7.68
2022-11-10T06:03:23.370Z,7.69
2022-11-10T06:05:52.068Z,7.71
2022-11-10T06:08:21.227Z,7.74
2022-11-10T06:10:49.174Z,7.79
2022-11-10T06:13:17.030Z,7.83
2022-11-10T06:15:50.040Z,7.87
2022-11-10T06:18:18.384Z,7.91
2022-11-10T06:20:47.818Z,7.93
2022-11-10T06:23:16.056Z,7.98
2022-11-10T06:25:44.793Z,8.02
2022-11-10T06:28:15.013Z,8.07
2022-11-10T06:30:42.812Z,8.11
2022-11-10T06:33:10.610Z,8.15
2022-11-10T06:35:38.414Z,8.17
2022-11-10T06:38:10.546Z,8.17
2022-11-10T06:40:38.449Z,8.19
2022-11-10T06:43:06.230Z,8.19
2022-11-10T06:45:33.972Z,8.21
2022-11-10T06:48:06.783Z,8.21
2022-11-10T06:50:34.619Z,8.20
2022-11-10T06:53:02.825Z,8.19
2022-11-10T06:55:31.152Z,8.22
2022-11-10T06:57:59.942Z,8.23
2022-11-10T07:00:29.508Z,8.26
2022-11-10T07:03:08.406Z,8.30
2022-11-10T07:05:36.933Z,8.33
2022-11-10T07:08:07.087Z,8.38
2022-11-10T07:10:36.521Z,8.43
2022-11-10T07:13:05.274Z,8.47
2022-11-10T07:15:34.474Z,8.53
2022-11-10T07:18:03.230Z,8.59
2022-11-10T07:20:32.321Z,8.63
2022-11-10T07:23:05.786Z,8.68
2022-11-10T07:25:37.273Z,8.75
2022-11-10T07:28:07.816Z,8.85
2022-11-10T07:30:35.805Z,8.92
2022-11-10T07:33:08.162Z,9.01
2022-11-10T07:35:37.175Z,9.11
2022-11-10T07:38:11.284Z,9.20
2022-11-10T07:40:39.509Z,9.28
2022-11-10T07:43:07.389Z,9.32
2022-11-10T07:45:35.195Z,9.36
2022-11-10T07:48:05.373Z,9.39
2022-11-10T07:50:33.997Z,9.42
2022-11-10T07:53:13.552Z,9.44
2022-11-10T07:55:43.795Z,9.47
2022-11-10T07:58:14.184Z,9.49
2022-11-10T08:00:42.900Z,9.51
2022-11-10T08:03:19.798Z,9.50
2022-11-10T08:05:48.852Z,9.51
2022-11-10T08:08:16.783Z,9.52
2022-11-10T08:10:44.594Z,9.53
2022-11-10T08:13:14.432Z,9.56
2022-11-10T08:15:42.254Z,9.58
2022-11-10T08:18:15.671Z,9.62
2022-11-10T08:20:44.180Z,9.63
2022-11-10T08:23:12.381Z,9.66
2022-11-10T08:25:40.978Z,9.69
2022-11-10T08:28:15.071Z,9.73
2022-11-10T08:30:45.417Z,9.76
2022-11-10T08:33:15.921Z,9.79
2022-11-10T08:35:47.188Z,9.82
2022-11-10T08:38:17.880Z,9.84
2022-11-10T08:40:46.374Z,9.87
2022-11-10T08:43:15.810Z,9.90
2022-11-10T08:45:45.173Z,9.96
2022-11-10T08:48:19.036Z,10.00
2022-11-10T08:50:47.891Z,10.04
2022-11-10T08:53:18.189Z,10.07
2022-11-10T08:55:46.892Z,10.11
2022-11-10T08:58:17.617Z,10.18
2022-11-10T09:00:46.393Z,10.26
2022-11-10T09:03:17.172Z,10.33
2022-11-10T09:05:46.444Z,10.41
2022-11-10T09:08:15.743Z,10.48
2022-11-10T09:10:47.530Z,10.53
2022-11-10T09:13:16.705Z,10.61
2022-11-10T09:15:44.994Z,10.67
2022-11-10T09:18:15.450Z,10.74
2022-11-10T09:20:43.324Z,10.80
2022-11-10T09:23:17.503Z,10.84
2022-11-10T09:25:51.584Z,10.86
2022-11-10T09:28:20.575Z,10.86
2022-11-10T09:30:50.762Z,10.82
2022-11-10T09:33:18.500Z,10.79
2022-11-10T09:35:46.330Z,10.76
2022-11-10T09:38:14.179Z,10.71
2022-11-10T09:41:07.377Z,10.71
2022-11-10T09:43:46.086Z,10.67
2022-11-10T09:46:38.396Z,10.65
2022-11-10T09:49:30.062Z,10.63
2022-11-10T09:52:00.476Z,10.62
2022-11-10T09:54:43.156Z,10.59
2022-11-10T09:57:14.775Z,10.56
2022-11-10T09:59:44.328Z,10.53
2022-11-10T10:02:40.483Z,10.50
2022-11-10T10:05:48.732Z,10.44
2022-11-10T10:08:31.590Z,10.41
2022-11-10T10:11:08.144Z,10.38
2022-11-10T10:13:48.421Z,10.34
2022-11-10T10:16:27.549Z,10.29
2022-11-10T10:19:15.368Z,10.21
2022-11-10T10:22:07.768Z,10.13
2022-11-10T10:24:38.824Z,9.98
2022-11-10T10:27:12.263Z,9.87
2022-11-10T10:29:45.210Z,9.78
2022-11-10T10:32:14.679Z,9.70
2022-11-10T10:34:44.474Z,9.65
2022-11-10T10:37:31.198Z,9.63
2022-11-10T10:39:58.946Z,9.59
2022-11-10T10:42:38.082Z,9.57
2022-11-10T10:45:20.988Z,9.54
2022-11-10T10:47:54.693Z,9.51
2022-11-10T10:50:24.619Z,9.49
2022-11-10T10:53:10.794Z,9.47
2022-11-10T10:55:39.765Z,9.45
2022-11-10T10:58:29.719Z,9.44
2022-11-10T11:01:19.785Z,9.45
2022-11-10T11:03:50.338Z,9.47
2022-11-10T11:06:20.167Z,9.49
2022-11-10T11:08:59.386Z,9.50
2022-11-10T11:11:37.264Z,9.51
2022-11-10T11:14:29.465Z,9.53
2022-11-10T11:17:22.054Z,9.52
2022-11-10T11:19:59.778Z,9.53
2022-11-10T11:22:59.306Z,9.57
2022-11-10T11:25:36.341Z,9.57
2022-11-10T11:28:16.920Z,9.57
2022-11-10T11:31:22.784Z,9.54
2022-11-10T11:34:17.811Z,9.54
2022-11-10T11:37:16.541Z,9.55
2022-11-10T11:40:05.739Z,9.55
2022-11-10T11:42:59.192Z,9.55
2022-11-10T11:45:52.613Z,9.53
2022-11-10T11:48:33.787Z,9.54
2022-11-10T11:51:29.412Z,9.55
2022-11-10T11:54:17.895Z,9.55
2022-11-10T11:56:49.882Z,9.55
2022-11-10T11:59:45.195Z,9.56
2022-11-10T12:02:31.582Z,9.58
2022-11-10T12:05:15.341Z,9.58
2022-11-10T12:07:55.497Z,9.60
2022-11-10T12:11:02.488Z,9.63
2022-11-10T12:13:41.804Z,9.66
2022-11-10T12:16:30.110Z,9.65
2022-11-10T12:19:16.175Z,9.65
2022-11-10T12:22:15.421Z,9.66
2022-11-10T12:24:50.130Z,9.67
2022-11-10T12:27:33.549Z,9.71
2022-11-10T12:30:06.422Z,9.78
2022-11-10T12:32:49.497Z,9.83
2022-11-10T12:35:26.226Z,9.88
2022-11-10T12:38:07.703Z,9.92
2022-11-10T12:40:52.049Z,9.95
2022-11-10T12:43:28.591Z,9.98
2022-11-10T12:46:00.391Z,10.01
2022-11-10T12:48:45.047Z,10.03
2022-11-10T12:51:28.437Z,10.05
2022-11-10T12:53:56.252Z,10.08
2022-11-10T12:56:37.852Z,10.07
2022-11-10T12:59:20.963Z,10.05
2022-11-10T13:01:52.909Z,10.05
2022-11-10T13:04:21.215Z,10.05
2022-11-10T13:06:53.090Z,10.06
2022-11-10T13:09:25.887Z,10.07
2022-11-10T13:12:23.220Z,10.07
2022-11-10T13:14:50.975Z,10.08
2022-11-10T13:17:31.006Z,10.09
2022-11-10T13:20:27.762Z,10.11
2022-11-10T13:22:51.112Z,10.14
2022-11-10T13:25:37.664Z,10.16
2022-11-10T13:28:09.601Z,10.17
2022-11-10T13:30:39.328Z,10.18
2022-11-10T13:33:30.536Z,10.19
2022-11-10T13:35:58.381Z,10.21
2022-11-10T13:38:31.977Z,10.21
2022-11-10T13:41:20.883Z,10.22
2022-11-10T13:43:58.105Z,10.20
2022-11-10T13:47:00.647Z,10.22
2022-11-10T13:49:54.679Z,10.24
2022-11-10T13:52:47.704Z,10.24
2022-11-10T13:55:27.528Z,10.23
2022-11-10T13:58:04.571Z,10.24
2022-11-10T14:00:35.800Z,10.23
2022-11-10T14:03:06.085Z,10.20
2022-11-10T14:05:42.101Z,10.18
2022-11-10T14:08:09.801Z,10.16
2022-11-10T14:11:00.012Z,10.17
2022-11-10T14:13:50.386Z,10.16
2022-11-10T14:16:24.769Z,10.14
2022-11-10T14:19:13.918Z,10.09
2022-11-10T14:22:17.452Z,10.06
2022-11-10T14:25:03.792Z,10.05
2022-11-10T14:27:35.550Z,10.02
2022-11-10T14:30:28.081Z,10.01
2022-11-10T14:33:06.671Z,10.02
2022-11-10T14:35:49.158Z,10.03
2022-11-10T14:38:27.879Z,10.02
2022-11-10T14:40:58.440Z,10.02
2022-11-10T14:43:30.760Z,10.01
2022-11-10T14:46:00.236Z,9.99
2022-11-10T14:48:31.499Z,9.99
2022-11-10T14:51:06.183Z,9.99
2022-11-10T14:53:39.099Z,9.97
2022-11-10T14:56:16.006Z,9.96
2022-11-10T14:58:44.889Z,9.94
2022-11-10T15:01:34.904Z,9.94
2022-11-10T15:04:06.022Z,9.94
2022-11-10T15:06:35.249Z,9.93
2022-11-10T15:09:16.263Z,9.92
2022-11-10T15:11:53.642Z,9.91
2022-11-10T15:14:44.923Z,9.91
2022-11-10T15:17:18.825Z,9.90
2022-11-10T15:19:46.549Z,9.90
2022-11-10T15:22:36.101Z,9.91
2022-11-10T15:25:19.998Z,9.90
2022-11-10T15:28:02.121Z,9.89
2022-11-10T15:30:30.209Z,9.88
2022-11-10T15:33:01.991Z,9.86
2022-11-10T15:35:32.053Z,9.83
2022-11-10T15:38:08.962Z,9.81
2022-11-10T15:40:42.574Z,9.80
2022-11-10T15:43:13.363Z,9.78
2022-11-10T15:45:44.440Z,9.74
2022-11-10T15:48:15.769Z,9.73
2022-11-10T15:50:47.763Z,9.72
2022-11-10T15:53:27.036Z,9.69
2022-11-10T15:55:54.792Z,9.66
2022-11-10T15:58:24.077Z,9.64
2022-11-10T16:00:52.111Z,9.61
2022-11-10T16:03:22.782Z,9.58
2022-11-10T16:05:50.543Z,9.54
2022-11-10T16:08:20.892Z,9.50
2022-11-10T16:10:52.703Z,9.48
2022-11-10T16:13:25.310Z,9.46
2022-11-10T16:15:54.391Z,9.44
2022-11-10T16:18:25.265Z,9.41
2022-11-10T16:20:53.381Z,9.39
2022-11-10T16:23:21.910Z,9.38
2022-11-10T16:25:52.152Z,9.35
2022-11-10T16:28:26.138Z,9.34
2022-11-10T16:30:55.216Z,9.33
2022-11-10T16:33:24.818Z,9.31
2022-11-10T16:35:54.639Z,9.30
2022-11-10T16:38:28.549Z,9.28
2022-11-10T16:40:59.891Z,9.27
2022-11-10T16:43:30.015Z,9.27
2022-11-10T16:46:02.545Z,9.25
2022-11-10T16:48:37.135Z,9.22
2022-11-10T16:51:05.142Z,9.20
2022-11-10T16:53:32.897Z,9.19
2022-11-10T16:56:00.577Z,9.16
2022-11-10T16:58:28.457Z,9.16
2022-11-10T17:01:00.366Z,9.14
2022-11-10T17:03:40.214Z,9.12
2022-11-10T17:06:13.793Z,9.10
2022-11-10T17:08:43.668Z,9.07
2022-11-10T17:11:11.516Z,9.05
2022-11-10T17:13:39.260Z,9.03
2022-11-10T17:16:16.820Z,9.01
2022-11-10T17:18:45.110Z,8.99
2022-11-10T17:21:13.892Z,8.97
2022-11-10T17:23:41.682Z,8.97
2022-11-10T17:26:12.378Z,8.98
2022-11-10T17:28:40.119Z,8.97
2022-11-10T17:31:07.959Z,8.96
2022-11-10T17:33:35.730Z,8.95
2022-11-10T17:36:05.421Z,8.94
2022-11-10T17:38:33.644Z,8.93
2022-11-10T17:41:01.435Z,8.93
2022-11-10T17:43:29.222Z,8.94
2022-11-10T17:45:56.946Z,8.95
2022-11-10T17:48:24.683Z,8.98
2022-11-10T17:50:52.401Z,8.99
2022-11-10T17:53:23.723Z,9.02
2022-11-10T17:55:51.876Z,9.04
2022-11-10T17:58:20.458Z,9.06
2022-11-10T18:00:48.799Z,9.09
2022-11-10T18:03:20.249Z,9.11
2022-11-10T18:05:49.088Z,9.13
2022-11-10T18:08:17.772Z,9.15
2022-11-10T18:10:53.231Z,9.17
2022-11-10T18:13:21.302Z,9.18
2022-11-10T18:15:49.643Z,9.20
2022-11-10T18:18:18.342Z,9.22
2022-11-10T18:20:46.087Z,9.24
2022-11-10T18:23:14.464Z,9.27
2022-11-10T18:25:43.054Z,9.29
2022-11-10T18:28:14.500Z,9.30
2022-11-10T18:30:43.561Z,9.32
2022-11-10T18:33:12.790Z,9.34
2022-11-10T18:35:40.798Z,9.36
2022-11-10T18:38:11.393Z,9.36
2022-11-10T18:40:39.799Z,9.37
2022-11-10T18:43:08.034Z,9.37
2022-11-10T18:45:37.260Z,9.36
2022-11-10T18:48:05.806Z,9.36
2022-11-10T18:50:33.528Z,9.35
2022-11-10T18:53:03.642Z,9.35
2022-11-10T18:55:31.606Z,9.35
2022-11-10T18:58:00.182Z,9.34
2022-11-10T19:00:28.064Z,9.32
2022-11-10T19:02:56.154Z,9.32
2022-11-10T19:05:24.837Z,9.32
2022-11-10T19:07:52.681Z,9.32
2022-11-10T19:10:20.431Z,9.35
2022-11-10T19:12:48.424Z,9.37
2022-11-10T19:15:16.260Z,9.40
2022-11-10T19:17:43.999Z,9.41
2022-11-10T19:20:14.681Z,9.41
2022-11-10T19:22:42.524Z,9.43
2022-11-10T19:25:10.262Z,9.44
2022-11-10T19:27:38.103Z,9.46
2022-11-10T19:30:06.553Z,9.49
2022-11-10T19:32:34.477Z,9.51
2022-11-10T19:35:04.064Z,9.54
2022-11-10T19:37:35.184Z,9.58
2022-11-10T19:40:04.483Z,9.60
2022-11-10T19:42:33.164Z,9.63
2022-11-10T19:45:01.879Z,9.66
2022-11-10T19:47:30.648Z,9.69
2022-11-10T19:49:58.429Z,9.70
2022-11-10T19:52:26.271Z,9.72
2022-11-10T19:54:54.171Z,9.74
2022-11-10T19:57:23.327Z,9.74
2022-11-10T19:59:51.120Z,9.74
2022-11-10T20:02:18.968Z,9.73
2022-11-10T20:05:05.610Z,9.72
2022-11-10T20:07:52.043Z,9.72
2022-11-10T20:10:21.363Z,9.72
2022-11-10T20:12:50.075Z,9.71
2022-11-10T20:15:18.172Z,9.68
2022-11-10T20:17:45.954Z,9.67
2022-11-10T20:20:13.836Z,9.65
2022-11-10T20:22:41.569Z,9.64
2022-11-10T20:25:10.990Z,9.62
2022-11-10T20:27:38.856Z,9.59
2022-11-10T20:30:07.279Z,9.56
2022-11-10T20:32:35.086Z,9.52
2022-11-10T20:35:02.830Z,9.49
2022-11-10T20:37:35.093Z,9.46
2022-11-10T20:40:13.971Z,9.44
2022-11-10T20:42:53.422Z,9.40
2022-11-10T20:45:21.243Z,9.38
2022-11-10T20:47:49.048Z,9.35
2022-11-10T20:50:20.453Z,9.33
2022-11-10T20:52:57.227Z,9.31
2022-11-10T20:55:51.696Z,9.28
2022-11-10T20:58:12.959Z,9.24
2022-11-10T21:00:44.982Z,9.22
2022-11-10T21:03:12.719Z,9.18
2022-11-10T21:05:42.664Z,9.17
2022-11-10T21:08:12.495Z,9.14
2022-11-10T21:10:40.346Z,9.13
2022-11-10T21:13:08.210Z,9.11
2022-11-10T21:15:40.638Z,9.09
2022-11-10T21:18:10.480Z,9.06
2022-11-10T21:20:38.221Z,9.05
2022-11-10T21:23:05.933Z,9.04
2022-11-10T21:25:33.928Z,9.05
2022-11-10T21:28:03.598Z,9.05
2022-11-10T21:30:31.342Z,9.06
2022-11-10T21:32:59.428Z,9.07
2022-11-10T21:35:28.323Z,9.07
2022-11-10T21:37:56.166Z,9.08
2022-11-10T21:40:23.916Z,9.07
2022-11-10T21:42:56.217Z,9.09
2022-11-10T21:45:25.581Z,9.11
2022-11-10T21:47:53.330Z,9.12
2022-11-10T21:50:21.137Z,9.12
2022-11-10T21:52:48.832Z,9.12
2022-11-10T21:55:16.651Z,9.11
2022-11-10T21:57:44.378Z,9.08
2022-11-10T22:00:14.338Z,9.06
2022-11-10T22:02:42.095Z,9.03
2022-11-10T22:05:09.828Z,8.99
2022-11-10T22:07:39.669Z,8.95
2022-11-10T22:10:26.555Z,8.90
2022-11-10T22:13:12.907Z,8.85
2022-11-10T22:15:59.206Z,8.79
2022-11-10T22:18:40.864Z,8.76
2022-11-10T22:21:10.670Z,8.71
2022-11-10T22:23:57.285Z,8.68
2022-11-10T22:26:25.044Z,8.64
2022-11-10T22:28:52.839Z,8.63
2022-11-10T22:31:20.585Z,8.61
2022-11-10T22:33:48.323Z,8.60
2022-11-10T22:36:17.845Z,8.57
2022-11-10T22:38:47.016Z,8.54
2022-11-10T22:41:35.064Z,8.53
2022-11-10T22:44:09.280Z,8.50
2022-11-10T22:46:42.172Z,8.47
2022-11-10T22:49:14.485Z,8.45
2022-11-10T22:51:45.898Z,8.42
2022-11-10T22:54:18.251Z,8.40
2022-11-10T22:56:48.203Z,8.39
2022-11-10T22:59:19.459Z,8.35
2022-11-10T23:01:48.693Z,8.32
2022-11-10T23:04:17.806Z,8.31
2022-11-10T23:06:45.566Z,8.30
2022-11-10T23:09:13.305Z,8.29
2022-11-10T23:11:41.074Z,8.31
2022-11-10T23:14:11.081Z,8.31
2022-11-10T23:16:38.802Z,8.32
2022-11-10T23:19:06.512Z,8.33
2022-11-10T23:21:34.281Z,8.34
2022-11-10T23:24:02.047Z,8.33
2022-11-10T23:26:30.360Z,8.33
2022-11-10T23:28:58.090Z,8.34
2022-11-10T23:31:28.728Z,8.34
2022-11-10T23:33:59.060Z,8.33
2022-11-10T23:36:28.664Z,8.34
2022-11-10T23:38:56.368Z,8.36
2022-11-10T23:41:27.043Z,8.38
2022-11-10T23:43:54.880Z,8.39
2022-11-10T23:46:24.110Z,8.39
2022-11-10T23:48:51.817Z,8.40
2022-11-10T23:51:20.805Z,8.39
2022-11-10T23:53:48.513Z,8.39
2022-11-10T23:56:18.052Z,8.39
2022-11-10T23:58:45.962Z,8.39
